weather.gov     
National Weather Service

Terminal Aerodrome Forecast
NWS Homepage
This page is being discontinued on March 12, 2014.
The same data is available at this site. Please update your bookmarks.
Thank you, and we apologize for the inconvenience.
Please send an email to SR-SRH.Webmaster@noaa.gov with any concerns.


Current Version
Previous Version:    01  02  03  04  05  06  07  08  09  10  11  12  13  14  15  16  17  18  19  20  21  22  23  24  25  26  27  28  29  30  
   31  32  33  34  35  
[Printable]
418
FTUS41 KRNK 171732
TAFLYH
TAF
KLYH 171732Z 1718/1818 08005KT P6SM SCT040 BKN080
     FM172200 00000KT P6SM SCT040
     FM180700 00000KT 3SM BR SCT030 BKN070
     FM180900 00000KT 1SM BR SCT001 BKN025
      TEMPO 1810/1812 1/2SM FG BKN001
     FM181300 00000KT 4SM BR SCT004 BKN040
     FM181500 00000KT P6SM BKN040=


418
FTUS41 KRNK 171732
TAFLYH
TAF
KLYH 171732Z 1718/1818 08005KT P6SM SCT040 BKN080
     FM172200 00000KT P6SM SCT040
     FM180700 00000KT 3SM BR SCT030 BKN070
     FM180900 00000KT 1SM BR SCT001 BKN025
      TEMPO 1810/1812 1/2SM FG BKN001
     FM181300 00000KT 4SM BR SCT004 BKN040
     FM181500 00000KT P6SM BKN040=




U.S. Dept. of Commerce
NOAA National Weather Service
1325 East West Highway
Silver Spring, MD 20910
E-mail: w-nws.webmaster@noaa.gov
Page last modified: May 16, 2007
NATIONAL WEATHER SERVICE: for Safety, for Work, for Fun - FOR LIFE